Thunder radar more information blitzortung!


Radar de pluja more information rain snow radar


Visita la nostra xarxa de llocs de meteo:

Template documentation
and downloads

And another site



No particular awareness of the weather is required.    There are no Weather-warnings

Pagina Historial Weather Underground text

Diari Resum Juliol 1, 2017 Unitats:  Imperial    Mètric   Tant
« Previous Dia
SegĂźent Dia »
Diari Setmana Mensual Anual Personalitzada
  Maxima: Minima: Media:
Temperatura: TemperatureC °F 15.2 °F 20.8 °F
Punt de rosada: DewpointC °F 4.1 °F 7.4 °F
Humitat: Humidity % 30 % 42 %
Wind Speed: WindSpeedKMH mph 0.0 mph 8.1 mph
RĂ fegues de vent: WindSpeedGustKMH mph - -
Vent:- - ESE
Pression baro: PressurehPa in 1015.8 in -
Precipitacions: 0.0 in    
Historical Graphs
 
 
Dades de taula per Juliol 1, 2017
Temps Temperatura Punt de rosada Pression baro Vent Wind Speed RĂ fegues de vent Humitat Rainfall Rate (Hourly)
TemperatureC °F DewpointC °F PressurehPa in Calm     Humidity % HourlyPrecipMM in
00:04 19.3 °F 6.1 °F 1015.8 in NNE 7.4 mph 7.4 mph 42 % 0.0 in
00:05 16.3 °F 4.9 °F 1015.8 in WSW 1.6 mph 4.8 mph 47 % 0.0 in
00:15 16.2 °F 4.9 °F 1015.8 in SW 1.6 mph 4.8 mph 47 % 0.0 in
00:25 16.1 °F 4.8 °F 1015.8 in WSW 1.6 mph 3.2 mph 47 % 0.0 in
00:35 15.9 °F 4.6 °F 1016.8 in WSW 1.6 mph 3.2 mph 47 % 0.0 in
00:45 15.8 °F 4.5 °F 1016.8 in WSW 4.8 mph 6.4 mph 47 % 0.0 in
00:55 15.8 °F 4.5 °F 1016.8 in WSW 4.8 mph 6.4 mph 47 % 0.0 in
01:05 15.7 °F 4.4 °F 1017.8 in WSW 4.8 mph 6.4 mph 47 % 0.0 in
01:15 15.6 °F 4.3 °F 1017.8 in WSW 3.2 mph 4.8 mph 47 % 0.0 in
01:25 15.6 °F 4.3 °F 1017.8 in SW 1.6 mph 3.2 mph 47 % 0.0 in
01:35 15.7 °F 4.4 °F 1017.8 in WSW 3.2 mph 9.7 mph 47 % 0.0 in
01:45 15.7 °F 4.4 °F 1017.8 in West 4.8 mph 6.4 mph 47 % 0.0 in
01:55 15.6 °F 4.3 °F 1016.8 in WSW 4.8 mph 9.7 mph 47 % 0.0 in
02:05 15.6 °F 4.3 °F 1016.8 in WSW 9.7 mph 9.7 mph 47 % 0.0 in
02:15 15.5 °F 4.2 °F 1016.8 in WSW 4.8 mph 11.3 mph 47 % 0.0 in
02:25 15.5 °F 4.5 °F 1017.8 in WSW 1.6 mph 6.4 mph 48 % 0.0 in
02:35 15.4 °F 4.1 °F 1016.8 in WSW 4.8 mph 4.8 mph 47 % 0.0 in
02:45 15.3 °F 4.3 °F 1016.8 in WSW 3.2 mph 6.4 mph 48 % 0.0 in
02:55 15.2 °F 4.3 °F 1017.8 in WSW 3.2 mph 4.8 mph 48 % 0.0 in
03:05 15.2 °F 4.3 °F 1016.8 in West 1.6 mph 6.4 mph 48 % 0.0 in
03:15 15.3 °F 4.6 °F 1016.8 in WNW 1.6 mph 4.8 mph 49 % 0.0 in
03:25 15.5 °F 4.8 °F 1017.8 in NW 4.8 mph 4.8 mph 49 % 0.0 in
03:35 15.9 °F 5.2 °F 1017.8 in WNW 3.2 mph 6.4 mph 49 % 0.0 in
03:45 16.2 °F 5.4 °F 1017.8 in West 3.2 mph 4.8 mph 49 % 0.0 in
03:55 16.4 °F 5.7 °F 1017.8 in West 3.2 mph 6.4 mph 49 % 0.0 in
04:05 17.0 °F 5.9 °F 1017.8 in West 3.2 mph 3.2 mph 48 % 0.0 in
04:15 17.5 °F 6.3 °F 1017.8 in West 4.8 mph 4.8 mph 48 % 0.0 in
04:25 17.9 °F 6.4 °F 1018.8 in WNW 3.2 mph 4.8 mph 47 % 0.0 in
04:35 18.7 °F 7.2 °F 1017.8 in WNW 3.2 mph 6.4 mph 47 % 0.0 in
04:45 18.6 °F 7.1 °F 1017.8 in WSW 3.2 mph 6.4 mph 47 % 0.0 in
04:55 18.8 °F 6.9 °F 1017.8 in WSW 4.8 mph 4.8 mph 46 % 0.0 in
09:57 19.2 °F 6.9 °F 1017.8 in West 7.4 mph 7.4 mph 45 % 0.0 in
10:02 19.2 °F 6.9 °F 1017.8 in WSW 11.1 mph 11.1 mph 45 % 0.0 in
10:03 19.2 °F 6.9 °F 1017.8 in WSW 11.1 mph 11.1 mph 45 % 0.0 in
10:08 19.4 °F 7.2 °F 1017.8 in WSW 7.4 mph 7.4 mph 45 % 0.0 in
10:13 19.3 °F 7.1 °F 1017.8 in NE 9.3 mph 9.3 mph 45 % 0.0 in
10:18 19.6 °F 7.3 °F 1017.8 in ENE 9.3 mph 9.3 mph 45 % 0.0 in
10:23 19.2 °F 6.9 °F 1017.8 in NNE 11.1 mph 11.1 mph 45 % 0.0 in
10:28 19.5 °F 7.2 °F 1017.8 in NE 10.3 mph 10.3 mph 45 % 0.0 in
10:33 19.7 °F 7.4 °F 1017.8 in ESE 9.3 mph 9.3 mph 45 % 0.0 in
10:38 20.0 °F 7.7 °F 1017.8 in ENE 7.4 mph 7.4 mph 45 % 0.0 in
10:43 20.2 °F 7.6 °F 1017.8 in SSE 9.3 mph 9.3 mph 44 % 0.0 in
10:48 20.2 °F 7.6 °F 1017.8 in ENE 11.1 mph 11.1 mph 44 % 0.0 in
10:53 20.2 °F 7.6 °F 1017.8 in ENE 9.3 mph 9.3 mph 44 % 0.0 in
10:58 20.2 °F 7.6 °F 1016.8 in NNE 9.3 mph 9.3 mph 44 % 0.0 in
11:03 20.1 °F 7.4 °F 1016.8 in ENE 9.5 mph 9.5 mph 44 % 0.0 in
11:08 20.5 °F 7.8 °F 1016.8 in ENE 7.2 mph 7.2 mph 44 % 0.0 in
11:10 20.2 °F 7.2 °F 1016.8 in NE 9.3 mph 9.3 mph 43 % 0.0 in
11:15 20.7 °F 8.0 °F 1017.8 in East 7.4 mph 7.4 mph 44 % 0.0 in
11:20 20.9 °F 8.2 °F 1017.8 in ENE 9.3 mph 9.3 mph 44 % 0.0 in
11:25 20.8 °F 7.8 °F 1017.8 in NE 13.0 mph 13.0 mph 43 % 0.0 in
11:30 21.2 °F 7.8 °F 1016.8 in NNE 13.0 mph 13.0 mph 42 % 0.0 in
11:35 21.5 °F 8.1 °F 1016.8 in ENE 9.3 mph 9.3 mph 42 % 0.0 in
11:40 21.3 °F 7.9 °F 1016.8 in SE 7.4 mph 7.4 mph 42 % 0.0 in
11:45 21.5 °F 8.1 °F 1017.8 in ESE 7.4 mph 7.4 mph 42 % 0.0 in
11:50 22.0 °F 8.5 °F 1017.8 in ESE 7.4 mph 7.4 mph 42 % 0.0 in
11:55 22.2 °F 8.7 °F 1017.8 in North 7.4 mph 7.4 mph 42 % 0.0 in
12:00 21.7 °F 8.2 °F 1016.8 in NE 10.0 mph 10.0 mph 42 % 0.0 in
12:05 21.9 °F 8.4 °F 1016.8 in NNE 5.8 mph 5.8 mph 42 % 0.0 in
12:10 22.6 °F 8.7 °F 1016.8 in ENE 7.6 mph 7.6 mph 41 % 0.0 in
12:15 23.1 °F 8.8 °F 1017.8 in West 9.3 mph 9.3 mph 40 % 0.0 in
12:20 23.1 °F 8.8 °F 1017.8 in SSE 5.6 mph 5.6 mph 40 % 0.0 in
12:25 23.6 °F 9.2 °F 1017.8 in SSE 5.6 mph 5.6 mph 40 % 0.0 in
12:30 23.6 °F 8.8 °F 1017.8 in ESE 5.6 mph 5.6 mph 39 % 0.0 in
12:35 23.6 °F 8.8 °F 1017.8 in ENE 4.2 mph 4.7 mph 39 % 0.0 in
12:40 24.1 °F 9.7 °F 1017.8 in NE 5.6 mph 5.6 mph 40 % 0.0 in
12:45 24.2 °F 9.4 °F 1017.8 in SSE 7.4 mph 7.4 mph 39 % 0.0 in
12:50 24.4 °F 9.6 °F 1017.8 in SW 7.4 mph 7.4 mph 39 % 0.0 in
12:55 24.1 °F 8.9 °F 1017.8 in North 3.7 mph 3.7 mph 38 % 0.0 in
13:00 24.8 °F 9.5 °F 1017.8 in East 9.5 mph 9.5 mph 38 % 0.0 in
13:05 24.4 °F 8.8 °F 1017.8 in ESE 9.3 mph 9.3 mph 37 % 0.0 in
13:10 24.3 °F 9.1 °F 1017.8 in NNE 11.1 mph 11.1 mph 38 % 0.0 in
13:15 24.4 °F 8.8 °F 1017.8 in East 7.4 mph 7.4 mph 37 % 0.0 in
13:20 25.4 °F 9.2 °F 1017.8 in SSW 8.7 mph 8.7 mph 36 % 0.0 in
13:25 25.3 °F 8.7 °F 1017.8 in SW 3.7 mph 3.7 mph 35 % 0.0 in
13:30 25.3 °F 8.7 °F 1017.8 in SW 5.6 mph 5.6 mph 35 % 0.0 in
13:35 26.1 °F 9.4 °F 1017.8 in WNW 5.6 mph 5.6 mph 35 % 0.0 in
13:40 25.6 °F 8.6 °F 1017.8 in WSW 11.1 mph 11.1 mph 34 % 0.0 in
13:45 25.4 °F 8.4 °F 1017.8 in West 5.6 mph 5.6 mph 34 % 0.0 in
13:50 25.1 °F 7.7 °F 1017.8 in South 7.4 mph 7.4 mph 33 % 0.0 in
13:56 25.4 °F 7.1 °F 1017.8 in NE 9.3 mph 9.3 mph 31 % 0.0 in
14:01 25.3 °F 7.4 °F 1017.8 in SW 7.4 mph 7.4 mph 32 % 0.0 in
14:06 25.6 °F 7.2 °F 1017.8 in ESE 9.7 mph 9.7 mph 31 % 0.0 in
14:11 25.1 °F 7.2 °F 1017.8 in NNE 5.6 mph 5.6 mph 32 % 0.0 in
14:16 25.5 °F 7.6 °F 1017.8 in WNW 7.4 mph 7.4 mph 32 % 0.0 in
14:21 25.8 °F 7.4 °F 1017.8 in East 7.4 mph 7.4 mph 31 % 0.0 in
14:26 25.5 °F 7.1 °F 1017.8 in South 7.4 mph 7.4 mph 31 % 0.0 in
14:31 25.8 °F 7.4 °F 1016.8 in WNW 5.6 mph 5.6 mph 31 % 0.0 in
14:36 26.2 °F 7.7 °F 1016.8 in WSW 5.0 mph 5.0 mph 31 % 0.0 in
14:41 26.0 °F 7.6 °F 1016.8 in WNW 5.6 mph 5.6 mph 31 % 0.0 in
14:46 25.7 °F 6.8 °F 1016.8 in NNE 5.3 mph 5.3 mph 30 % 0.0 in
14:51 25.8 °F 6.9 °F 1016.8 in ESE 4.7 mph 4.7 mph 30 % 0.0 in
14:56 25.4 °F 6.6 °F 1016.8 in ENE 5.8 mph 5.8 mph 30 % 0.0 in
15:01 25.3 °F 6.9 °F 1016.8 in ESE 9.3 mph 9.3 mph 31 % 0.0 in
15:06 24.7 °F 6.9 °F 1016.8 in ESE 9.3 mph 9.3 mph 32 % 0.0 in
15:11 24.8 °F 7.4 °F 1016.8 in ESE 16.9 mph 16.9 mph 33 % 0.0 in
15:16 24.1 °F 6.8 °F 1017.8 in ESE 20.4 mph 20.4 mph 33 % 0.0 in
15:21 23.8 °F 7.0 °F 1017.8 in ENE 16.7 mph 16.7 mph 34 % 0.0 in
15:26 23.5 °F 7.2 °F 1017.8 in ESE 17.2 mph 17.2 mph 35 % 0.0 in
15:31 23.3 °F 6.9 °F 1016.8 in East 16.7 mph 16.7 mph 35 % 0.0 in
15:36 23.3 °F 7.4 °F 1016.8 in ESE 16.9 mph 16.9 mph 36 % 0.0 in
15:41 23.4 °F 7.5 °F 1016.8 in East 11.1 mph 11.1 mph 36 % 0.0 in
15:46 23.4 °F 7.5 °F 1017.8 in East 11.1 mph 11.1 mph 36 % 0.0 in
15:51 23.2 °F 7.7 °F 1017.8 in SE 13.0 mph 13.0 mph 37 % 0.0 in
15:56 23.2 °F 7.7 °F 1017.8 in ENE 10.0 mph 10.0 mph 37 % 0.0 in
16:01 23.0 °F 7.5 °F 1017.8 in ESE 16.7 mph 16.7 mph 37 % 0.0 in
16:06 22.9 °F 7.8 °F 1017.8 in ESE 13.0 mph 13.0 mph 38 % 0.0 in
16:11 23.5 °F 7.9 °F 1017.8 in East 11.1 mph 11.1 mph 37 % 0.0 in
16:16 23.3 °F 7.8 °F 1017.8 in ESE 14.8 mph 14.8 mph 37 % 0.0 in
16:21 23.5 °F 7.9 °F 1017.8 in ESE 13.0 mph 13.0 mph 37 % 0.0 in
16:26 24.0 °F 8.8 °F 1017.8 in East 11.1 mph 11.1 mph 38 % 0.0 in
16:31 23.6 °F 8.4 °F 1017.8 in ENE 16.7 mph 16.7 mph 38 % 0.0 in
16:36 23.7 °F 8.2 °F 1017.8 in SE 13.0 mph 13.0 mph 37 % 0.0 in
16:41 23.7 °F 8.2 °F 1017.8 in ESE 17.2 mph 17.2 mph 37 % 0.0 in
16:46 23.3 °F 8.2 °F 1017.8 in ESE 14.8 mph 14.8 mph 38 % 0.0 in
16:51 23.1 °F 8.0 °F 1017.8 in East 14.8 mph 14.8 mph 38 % 0.0 in
16:56 23.3 °F 8.2 °F 1017.8 in ENE 9.3 mph 9.3 mph 38 % 0.0 in
17:01 23.2 °F 8.1 °F 1017.8 in ESE 13.0 mph 13.0 mph 38 % 0.0 in
17:06 23.2 °F 8.1 °F 1017.8 in ESE 9.7 mph 9.7 mph 38 % 0.0 in
17:11 23.1 °F 8.0 °F 1017.8 in ESE 14.8 mph 14.8 mph 38 % 0.0 in
17:16 22.9 °F 8.2 °F 1017.8 in NE 13.0 mph 13.0 mph 39 % 0.0 in
17:21 23.0 °F 7.9 °F 1017.8 in ENE 14.8 mph 14.8 mph 38 % 0.0 in
17:26 22.9 °F 8.2 °F 1017.8 in East 7.4 mph 7.4 mph 39 % 0.0 in
17:36 22.6 °F 7.9 °F 1017.8 in ESE 20.4 mph 20.4 mph 39 % 0.0 in
17:41 22.4 °F 7.8 °F 1017.8 in SSE 18.5 mph 18.5 mph 39 % 0.0 in
17:46 22.3 °F 7.7 °F 1017.8 in South 9.3 mph 9.3 mph 39 % 0.0 in
17:51 22.2 °F 7.6 °F 1017.8 in ESE 22.2 mph 22.2 mph 39 % 0.0 in
17:56 22.1 °F 7.9 °F 1017.8 in East 14.8 mph 14.8 mph 40 % 0.0 in
18:01 22.0 °F 7.8 °F 1017.8 in ESE 13.0 mph 13.0 mph 40 % 0.0 in
18:06 22.0 °F 7.8 °F 1017.8 in SE 16.7 mph 16.7 mph 40 % 0.0 in
18:11 21.9 °F 7.7 °F 1017.8 in NNE 13.0 mph 13.0 mph 40 % 0.0 in
18:16 21.9 °F 7.7 °F 1017.8 in ESE 14.8 mph 14.8 mph 40 % 0.0 in
18:21 21.6 °F 7.4 °F 1017.8 in NNE 15.8 mph 15.8 mph 40 % 0.0 in
18:26 21.6 °F 7.8 °F 1017.8 in ENE 11.1 mph 11.1 mph 41 % 0.0 in
18:31 21.3 °F 7.5 °F 1017.8 in ESE 13.0 mph 13.0 mph 41 % 0.0 in
18:36 21.2 °F 7.4 °F 1017.8 in East 9.3 mph 9.3 mph 41 % 0.0 in
18:41 21.2 °F 7.4 °F 1017.8 in East 11.1 mph 11.1 mph 41 % 0.0 in
18:46 21.2 °F 7.4 °F 1017.8 in NNE 13.0 mph 13.0 mph 41 % 0.0 in
18:51 21.2 °F 7.4 °F 1017.8 in WNW 7.4 mph 7.4 mph 41 % 0.0 in
18:56 21.1 °F 7.3 °F 1017.8 in East 12.2 mph 12.2 mph 41 % 0.0 in
19:01 21.0 °F 7.2 °F 1017.8 in NE 13.0 mph 13.0 mph 41 % 0.0 in
19:06 20.9 °F 7.5 °F 1017.8 in North 11.1 mph 11.1 mph 42 % 0.0 in
19:11 21.0 °F 7.6 °F 1018.8 in ENE 10.0 mph 10.0 mph 42 % 0.0 in
19:16 20.8 °F 7.4 °F 1018.8 in NE 11.1 mph 11.1 mph 42 % 0.0 in
19:18 20.8 °F 7.8 °F 1018.8 in NNE 7.4 mph 7.4 mph 43 % 0.0 in
19:23 20.7 °F 7.7 °F 1018.8 in NNE 11.4 mph 11.4 mph 43 % 0.0 in
19:28 20.7 °F 7.7 °F 1018.8 in East 13.0 mph 13.0 mph 43 % 0.0 in
19:33 20.6 °F 7.6 °F 1018.8 in North 9.3 mph 9.3 mph 43 % 0.0 in
19:38 20.6 °F 7.6 °F 1018.8 in ESE 9.3 mph 9.3 mph 43 % 0.0 in
19:43 20.5 °F 7.5 °F 1018.8 in NNE 13.0 mph 13.0 mph 43 % 0.0 in
19:48 20.4 °F 7.1 °F 1018.8 in ENE 11.1 mph 11.1 mph 42 % 0.0 in
19:53 20.4 °F 7.4 °F 1018.8 in NNE 11.1 mph 11.1 mph 43 % 0.0 in
19:58 20.3 °F 7.3 °F 1018.8 in NE 7.9 mph 7.9 mph 43 % 0.0 in
20:03 20.3 °F 7.3 °F 1018.8 in North 7.4 mph 7.4 mph 43 % 0.0 in
20:08 20.3 °F 7.7 °F 1018.8 in ENE 9.3 mph 9.3 mph 44 % 0.0 in
20:13 20.2 °F 7.6 °F 1018.8 in NE 9.3 mph 9.3 mph 44 % 0.0 in
20:18 20.1 °F 7.4 °F 1018.8 in ENE 9.3 mph 9.3 mph 44 % 0.0 in
20:23 20.1 °F 7.8 °F 1018.8 in East 13.0 mph 13.0 mph 45 % 0.0 in
20:28 20.2 °F 7.9 °F 1018.8 in East 9.3 mph 9.3 mph 45 % 0.0 in
20:33 20.1 °F 7.8 °F 1018.8 in ENE 7.4 mph 7.4 mph 45 % 0.0 in
20:38 20.0 °F 7.7 °F 1018.8 in ENE 7.4 mph 7.4 mph 45 % 0.0 in
20:43 19.9 °F 7.6 °F 1019.9 in ENE 9.3 mph 9.3 mph 45 % 0.0 in
20:48 19.9 °F 7.9 °F 1019.9 in ENE 9.3 mph 9.3 mph 46 % 0.0 in
20:53 19.9 °F 7.9 °F 1019.9 in ESE 9.3 mph 9.3 mph 46 % 0.0 in
20:58 19.9 °F 7.9 °F 1018.8 in NNE 6.4 mph 6.4 mph 46 % 0.0 in
21:03 19.8 °F 7.8 °F 1018.8 in ENE 9.3 mph 9.3 mph 46 % 0.0 in
21:08 19.8 °F 7.8 °F 1018.8 in ENE 5.6 mph 5.6 mph 46 % 0.0 in
21:13 19.8 °F 7.8 °F 1019.9 in ENE 5.6 mph 5.6 mph 46 % 0.0 in
21:18 19.7 °F 8.1 °F 1019.9 in North 5.6 mph 5.6 mph 47 % 0.0 in
21:23 19.7 °F 8.1 °F 1019.9 in NNE 5.6 mph 5.6 mph 47 % 0.0 in
21:28 19.6 °F 8.0 °F 1019.9 in NE 7.4 mph 7.4 mph 47 % 0.0 in
21:33 19.6 °F 8.0 °F 1019.9 in East 7.4 mph 7.4 mph 47 % 0.0 in
21:38 19.6 °F 8.0 °F 1019.9 in ENE 5.8 mph 5.8 mph 47 % 0.0 in
21:43 19.5 °F 7.9 °F 1019.9 in NE 5.8 mph 5.8 mph 47 % 0.0 in
21:48 19.5 °F 7.9 °F 1019.9 in ENE 6.1 mph 6.1 mph 47 % 0.0 in
21:53 19.5 °F 7.9 °F 1019.9 in North 4.7 mph 4.7 mph 47 % 0.0 in
21:58 19.5 °F 7.9 °F 1019.9 in ESE 7.4 mph 7.4 mph 47 % 0.0 in
22:03 19.5 °F 8.2 °F 1019.9 in ESE 7.4 mph 7.4 mph 48 % 0.0 in
22:08 19.5 °F 7.9 °F 1019.9 in ENE 3.7 mph 3.7 mph 47 % 0.0 in
22:13 19.4 °F 8.1 °F 1019.9 in ENE 5.6 mph 5.6 mph 48 % 0.0 in
22:18 19.4 °F 8.1 °F 1019.9 in East 5.6 mph 5.6 mph 48 % 0.0 in
22:23 19.4 °F 8.1 °F 1019.9 in ENE 5.6 mph 5.6 mph 48 % 0.0 in
22:28 19.3 °F 8.0 °F 1019.9 in East 3.7 mph 3.7 mph 48 % 0.0 in
22:33 19.3 °F 8.0 °F 1019.9 in ENE 3.9 mph 3.9 mph 48 % 0.0 in
22:38 19.3 °F 8.0 °F 1019.9 in East 3.7 mph 3.7 mph 48 % 0.0 in
22:43 19.3 °F 8.0 °F 1019.9 in NE 3.7 mph 3.7 mph 48 % 0.0 in
22:48 19.2 °F 7.9 °F 1019.9 in ENE 3.7 mph 3.7 mph 48 % 0.0 in
22:53 19.2 °F 7.9 °F 1019.9 in NE 3.7 mph 3.7 mph 48 % 0.0 in
22:58 19.2 °F 7.9 °F 1019.9 in NE 1.9 mph   48 % 0.0 in
23:03 19.2 °F 7.9 °F 1019.9 in NE 2.3 mph 2.3 mph 48 % 0.0 in
23:08 19.2 °F 7.9 °F 1019.9 in Calm     48 % 0.0 in
23:13 19.1 °F 8.1 °F 1020.9 in NNE 1.9 mph   49 % 0.0 in
23:18 19.1 °F 8.1 °F 1020.9 in East 3.2 mph 3.2 mph 49 % 0.0 in
23:23 19.1 °F 8.1 °F 1020.9 in Calm     49 % 0.0 in
23:28 19.0 °F 8.1 °F 1020.9 in WNW 1.9 mph 1.9 mph 49 % 0.0 in
23:33 19.0 °F 8.1 °F 1020.9 in Calm     49 % 0.0 in
23:38 19.0 °F 8.1 °F 1020.9 in Calm     49 % 0.0 in
23:43 19.0 °F 8.1 °F 1020.9 in Calm     49 % 0.0 in
23:48 19.0 °F 8.1 °F 1020.9 in NNE 1.9 mph   49 % 0.0 in
23:53 19.0 °F 8.1 °F 1020.9 in Calm     49 % 0.0 in
23:58 19.0 °F 8.1 °F 1019.9 in NNE 3.7 mph 3.7 mph 49 % 0.0 in
Meteo Sesrovires
Elogis d' Weather Underground - 1.5 mb

Guio original per  Jim McMurry - jmcmurry@mwt.net Adaptat per a la plantilla per  Wim van der Kuil - Leuven-Template.eu

Trobareu la nostra informacio del temps tambe a:

Weather Underground

AWEKAS